sensor_id;sensor_type;location;lat;lon;timestamp;pressure;altitude;pressure_sealevel;temperature;humidity
63096;BME280;49184;55.596;37.770;2022-10-16T05:07:21;101017.72;;;4.57;70.03
63096;BME280;49184;55.596;37.770;2022-10-16T05:09:48;100953.31;;;4.17;70.01
63096;BME280;49184;55.596;37.770;2022-10-16T05:12:14;100973.16;;;4.41;69.80
63096;BME280;49184;55.596;37.770;2022-10-16T05:14:40;101017.41;;;4.77;69.63
63096;BME280;49184;55.596;37.770;2022-10-16T05:17:07;100953.50;;;4.46;69.12
63096;BME280;49184;55.596;37.770;2022-10-16T05:19:34;101018.22;;;4.89;69.65
63096;BME280;49184;55.596;37.770;2022-10-16T05:22:00;100989.56;;;4.70;69.06
63096;BME280;49184;55.596;37.770;2022-10-16T05:24:26;101013.16;;;4.81;68.84
63096;BME280;49184;55.596;37.770;2022-10-16T05:26:52;100990.19;;;4.72;68.66
63096;BME280;49184;55.596;37.770;2022-10-16T05:29:18;101009.63;;;4.92;68.42
63096;BME280;49184;55.596;37.770;2022-10-16T05:31:45;101013.91;;;5.00;68.43
63096;BME280;49184;55.596;37.770;2022-10-16T05:34:11;101030.63;;;5.09;67.68
63096;BME280;49184;55.596;37.770;2022-10-16T05:36:37;100997.63;;;4.88;67.53
63096;BME280;49184;55.596;37.770;2022-10-16T05:39:03;100986.78;;;4.88;67.64
63096;BME280;49184;55.596;37.770;2022-10-16T05:41:29;100989.38;;;4.95;67.33
63096;BME280;49184;55.596;37.770;2022-10-16T05:43:55;100985.13;;;4.99;67.06
63096;BME280;49184;55.596;37.770;2022-10-16T05:46:21;100994.47;;;5.15;66.83
63096;BME280;49184;55.596;37.770;2022-10-16T05:48:47;101015.69;;;5.30;66.71
63096;BME280;49184;55.596;37.770;2022-10-16T05:51:14;101013.44;;;5.38;66.44
63096;BME280;49184;55.596;37.770;2022-10-16T05:53:41;101026.06;;;5.45;66.10
63096;BME280;49184;55.596;37.770;2022-10-16T05:56:10;100997.88;;;5.34;66.01
63096;BME280;49184;55.596;37.770;2022-10-16T05:58:37;100997.41;;;5.37;65.77
63096;BME280;49184;55.596;37.770;2022-10-16T06:01:09;100988.56;;;5.41;65.47
63096;BME280;49184;55.596;37.770;2022-10-16T06:03:36;101047.47;;;5.81;65.32
63096;BME280;49184;55.596;37.770;2022-10-16T06:06:17;100995.00;;;5.52;65.21
63096;BME280;49184;55.596;37.770;2022-10-16T06:08:44;101052.28;;;5.91;65.24
63096;BME280;49184;55.596;37.770;2022-10-16T06:11:15;101019.19;;;5.65;64.85
63096;BME280;49184;55.596;37.770;2022-10-16T06:13:42;101051.69;;;5.89;64.56
63096;BME280;49184;55.596;37.770;2022-10-16T06:16:09;101011.16;;;5.71;64.50
63096;BME280;49184;55.596;37.770;2022-10-16T06:18:36;101036.50;;;6.00;64.69
63096;BME280;49184;55.596;37.770;2022-10-16T06:21:11;101008.88;;;5.79;64.27
63096;BME280;49184;55.596;37.770;2022-10-16T06:23:38;101031.06;;;6.00;64.19
63096;BME280;49184;55.596;37.770;2022-10-16T06:26:08;101027.63;;;6.04;64.00
63096;BME280;49184;55.596;37.770;2022-10-16T06:28:35;101019.38;;;5.99;63.97
63096;BME280;49184;55.596;37.770;2022-10-16T06:31:03;101059.50;;;6.38;63.86
63096;BME280;49184;55.596;37.770;2022-10-16T06:33:29;101014.97;;;6.10;63.18
63096;BME280;49184;55.596;37.770;2022-10-16T06:36:15;101007.31;;;6.07;63.41
63096;BME280;49184;55.596;37.770;2022-10-16T06:38:43;101020.59;;;6.20;63.11
63096;BME280;49184;55.596;37.770;2022-10-16T06:41:15;101021.41;;;6.32;63.45
63096;BME280;49184;55.596;37.770;2022-10-16T06:43:41;101023.59;;;6.35;63.20
63096;BME280;49184;55.596;37.770;2022-10-16T06:46:10;101034.28;;;6.54;62.89
63096;BME280;49184;55.596;37.770;2022-10-16T06:48:37;101045.66;;;6.68;62.53
63096;BME280;49184;55.596;37.770;2022-10-16T06:51:08;101053.44;;;6.76;62.82
63096;BME280;49184;55.596;37.770;2022-10-16T06:53:36;101036.09;;;6.65;62.71
63096;BME280;49184;55.596;37.770;2022-10-16T06:56:14;101038.50;;;6.78;62.63
63096;BME280;49184;55.596;37.770;2022-10-16T06:58:42;101064.16;;;6.99;62.47
63096;BME280;49184;55.596;37.770;2022-10-16T07:01:09;101058.13;;;6.97;62.21
63096;BME280;49184;55.596;37.770;2022-10-16T07:03:39;101045.03;;;6.94;62.45
63096;BME280;49184;55.596;37.770;2022-10-16T07:06:08;101062.53;;;7.15;62.48
63096;BME280;49184;55.596;37.770;2022-10-16T07:08:37;101062.59;;;7.20;62.24
63096;BME280;49184;55.596;37.770;2022-10-16T07:11:09;101059.38;;;7.23;62.07
63096;BME280;49184;55.596;37.770;2022-10-16T07:13:40;101053.34;;;7.21;61.67
63096;BME280;49184;55.596;37.770;2022-10-16T07:16:18;101054.34;;;7.32;61.97
63096;BME280;49184;55.596;37.770;2022-10-16T07:18:45;101059.63;;;7.39;61.90
63096;BME280;49184;55.596;37.770;2022-10-16T07:21:13;101072.94;;;7.57;61.92
63096;BME280;49184;55.596;37.770;2022-10-16T07:23:40;101059.94;;;7.59;61.77
63096;BME280;49184;55.596;37.770;2022-10-16T07:26:07;101059.09;;;7.59;61.52
63096;BME280;49184;55.596;37.770;2022-10-16T07:28:33;101086.78;;;7.72;61.48
63096;BME280;49184;55.596;37.770;2022-10-16T07:31:01;101069.06;;;7.70;61.75
63096;BME280;49184;55.596;37.770;2022-10-16T07:33:28;101067.06;;;7.82;60.96
63096;BME280;49184;55.596;37.770;2022-10-16T07:35:54;101054.31;;;7.88;61.44
63096;BME280;49184;55.596;37.770;2022-10-16T07:38:21;101057.50;;;8.02;61.30
63096;BME280;49184;55.596;37.770;2022-10-16T07:40:56;101065.31;;;8.15;61.19
63096;BME280;49184;55.596;37.770;2022-10-16T07:43:22;101038.75;;;8.05;60.63
63096;BME280;49184;55.596;37.770;2022-10-16T07:45:49;101069.50;;;8.28;60.26
63096;BME280;49184;55.596;37.770;2022-10-16T07:48:15;101067.50;;;8.40;60.55
63096;BME280;49184;55.596;37.770;2022-10-16T07:50:42;101042.66;;;8.36;59.98
63096;BME280;49184;55.596;37.770;2022-10-16T07:53:08;101046.41;;;8.52;59.56
63096;BME280;49184;55.596;37.770;2022-10-16T07:55:35;101062.06;;;8.67;59.61
63096;BME280;49184;55.596;37.770;2022-10-16T07:58:01;101047.41;;;8.73;59.24
63096;BME280;49184;55.596;37.770;2022-10-16T08:00:27;101057.06;;;8.81;58.76
63096;BME280;49184;55.596;37.770;2022-10-16T08:02:53;101048.91;;;8.86;58.12
63096;BME280;49184;55.596;37.770;2022-10-16T08:05:19;101051.16;;;8.94;57.88
63096;BME280;49184;55.596;37.770;2022-10-16T08:07:49;101049.00;;;8.96;57.63
63096;BME280;49184;55.596;37.770;2022-10-16T08:10:17;101067.72;;;9.14;56.95
63096;BME280;49184;55.596;37.770;2022-10-16T08:12:44;101044.94;;;9.04;56.81
63096;BME280;49184;55.596;37.770;2022-10-16T08:15:10;101047.56;;;9.21;56.65
63096;BME280;49184;55.596;37.770;2022-10-16T08:17:38;101054.75;;;9.32;56.15
63096;BME280;49184;55.596;37.770;2022-10-16T08:20:05;101053.13;;;9.36;55.54
63096;BME280;49184;55.596;37.770;2022-10-16T08:22:31;101065.19;;;9.45;55.36
63096;BME280;49184;55.596;37.770;2022-10-16T08:24:57;101066.59;;;9.48;55.70
63096;BME280;49184;55.596;37.770;2022-10-16T08:27:23;101060.34;;;9.52;55.75
63096;BME280;49184;55.596;37.770;2022-10-16T08:29:49;101046.09;;;9.50;55.33
63096;BME280;49184;55.596;37.770;2022-10-16T08:32:16;101045.94;;;9.62;55.53
63096;BME280;49184;55.596;37.770;2022-10-16T08:34:42;101062.69;;;9.81;54.76
63096;BME280;49184;55.596;37.770;2022-10-16T08:37:08;101032.38;;;9.77;55.35
63096;BME280;49184;55.596;37.770;2022-10-16T08:39:37;101054.03;;;9.94;54.41
63096;BME280;49184;55.596;37.770;2022-10-16T08:42:21;101010.19;;;9.69;54.05
63096;BME280;49184;55.596;37.770;2022-10-16T08:50:13;101046.72;;;10.10;53.24
63096;BME280;49184;55.596;37.770;2022-10-16T08:52:41;101032.25;;;10.15;52.98
63096;BME280;49184;55.596;37.770;2022-10-16T08:57:50;101051.50;;;10.45;52.55
63096;BME280;49184;55.596;37.770;2022-10-16T09:00:16;101049.31;;;10.52;52.43
63096;BME280;49184;55.596;37.770;2022-10-16T09:10:39;101030.50;;;10.81;51.33
63096;BME280;49184;55.596;37.770;2022-10-16T09:13:17;101041.19;;;11.03;51.37
63096;BME280;49184;55.596;37.770;2022-10-16T09:15:54;101051.06;;;11.10;50.39
63096;BME280;49184;55.596;37.770;2022-10-16T09:18:25;101046.13;;;11.17;50.51
63096;BME280;49184;55.596;37.770;2022-10-16T09:23:34;101023.41;;;11.16;49.45
63096;BME280;49184;55.596;37.770;2022-10-16T09:26:03;101042.25;;;11.38;49.44
63096;BME280;49184;55.596;37.770;2022-10-16T09:28:31;101005.59;;;11.19;47.60
63096;BME280;49184;55.596;37.770;2022-10-16T09:30:58;101005.31;;;11.25;47.13
63096;BME280;49184;55.596;37.770;2022-10-16T09:33:37;101014.63;;;11.29;47.56
63096;BME280;49184;55.596;37.770;2022-10-16T09:36:05;101029.38;;;11.44;46.96
63096;BME280;49184;55.596;37.770;2022-10-16T09:38:32;101034.56;;;11.56;47.09
63096;BME280;49184;55.596;37.770;2022-10-16T09:41:01;101040.03;;;11.61;46.36
63096;BME280;49184;55.596;37.770;2022-10-16T09:43:45;101020.59;;;11.52;46.08
63096;BME280;49184;55.596;37.770;2022-10-16T09:48:52;101018.06;;;11.71;46.00
63096;BME280;49184;55.596;37.770;2022-10-16T09:51:29;101031.78;;;11.86;46.14
63096;BME280;49184;55.596;37.770;2022-10-16T09:54:13;101002.97;;;11.79;46.05
63096;BME280;49184;55.596;37.770;2022-10-16T09:56:40;100999.16;;;11.74;45.83
63096;BME280;49184;55.596;37.770;2022-10-16T09:59:14;101030.31;;;12.09;46.33
63096;BME280;49184;55.596;37.770;2022-10-16T10:01:44;101002.72;;;11.80;45.00
63096;BME280;49184;55.596;37.770;2022-10-16T10:04:11;101009.81;;;11.91;44.80
63096;BME280;49184;55.596;37.770;2022-10-16T10:06:44;101022.09;;;12.04;44.78
63096;BME280;49184;55.596;37.770;2022-10-16T10:09:37;101025.38;;;12.06;45.18
63096;BME280;49184;55.596;37.770;2022-10-16T10:12:05;100985.94;;;12.02;52.40
63096;BME280;49184;55.596;37.770;2022-10-16T10:19:39;101014.38;;;12.16;44.21
63096;BME280;49184;55.596;37.770;2022-10-16T10:24:54;100997.97;;;12.06;44.41
63096;BME280;49184;55.596;37.770;2022-10-16T10:27:26;100971.69;;;11.95;43.96
63096;BME280;49184;55.596;37.770;2022-10-16T10:35:11;101009.84;;;12.41;44.96
63096;BME280;49184;55.596;37.770;2022-10-16T10:40:34;100999.41;;;12.43;43.94
63096;BME280;49184;55.596;37.770;2022-10-16T10:46:14;101001.03;;;12.49;43.81
63096;BME280;49184;55.596;37.770;2022-10-16T10:54:22;101005.06;;;12.96;44.21
63096;BME280;49184;55.596;37.770;2022-10-16T11:00:17;100999.38;;;13.16;42.89
63096;BME280;49184;55.596;37.770;2022-10-16T11:05:33;100990.78;;;12.94;42.77
63096;BME280;49184;55.596;37.770;2022-10-16T11:08:19;100974.75;;;12.77;43.29
63096;BME280;49184;55.596;37.770;2022-10-16T11:10:58;100967.00;;;12.84;43.24
63096;BME280;49184;55.596;37.770;2022-10-16T11:16:15;100948.63;;;12.85;43.39
63096;BME280;49184;55.596;37.770;2022-10-16T11:18:59;100975.09;;;13.00;43.33
63096;BME280;49184;55.596;37.770;2022-10-16T11:21:31;100988.47;;;13.11;43.44
63096;BME280;49184;55.596;37.770;2022-10-16T11:24:13;100960.84;;;12.98;42.64
63096;BME280;49184;55.596;37.770;2022-10-16T11:26:42;100946.72;;;12.80;42.89
63096;BME280;49184;55.596;37.770;2022-10-16T11:29:18;100982.56;;;13.28;43.04
63096;BME280;49184;55.596;37.770;2022-10-16T11:32:04;100969.41;;;13.20;42.78
63096;BME280;49184;55.596;37.770;2022-10-16T11:34:47;100962.88;;;13.16;42.79
63096;BME280;49184;55.596;37.770;2022-10-16T11:37:21;100975.72;;;13.26;42.71
63096;BME280;49184;55.596;37.770;2022-10-16T11:39:50;100942.94;;;13.05;42.88
63096;BME280;49184;55.596;37.770;2022-10-16T11:42:39;100979.81;;;13.23;42.89
63096;BME280;49184;55.596;37.770;2022-10-16T11:47:37;100942.94;;;13.05;42.54
63096;BME280;49184;55.596;37.770;2022-10-16T11:50:23;100971.03;;;13.26;42.33
63096;BME280;49184;55.596;37.770;2022-10-16T11:55:40;100975.06;;;13.34;42.72
63096;BME280;49184;55.596;37.770;2022-10-16T12:09:27;100963.69;;;13.16;42.65
63096;BME280;49184;55.596;37.770;2022-10-16T12:11:54;100962.56;;;13.17;42.99
63096;BME280;49184;55.596;37.770;2022-10-16T12:14:22;100964.25;;;13.13;42.37
63096;BME280;49184;55.596;37.770;2022-10-16T12:17:24;100969.72;;;13.19;43.13
63096;BME280;49184;55.596;37.770;2022-10-16T12:19:59;100947.84;;;13.08;43.22
63096;BME280;49184;55.596;37.770;2022-10-16T12:22:29;100964.81;;;13.15;42.46
63096;BME280;49184;55.596;37.770;2022-10-16T12:24:57;100935.06;;;12.93;42.45
63096;BME280;49184;55.596;37.770;2022-10-16T12:27:32;100963.50;;;13.08;42.70
63096;BME280;49184;55.596;37.770;2022-10-16T12:30:01;100942.53;;;12.88;42.33
63096;BME280;49184;55.596;37.770;2022-10-16T12:32:35;100954.25;;;12.99;42.33
63096;BME280;49184;55.596;37.770;2022-10-16T12:35:03;100933.31;;;12.79;42.76
63096;BME280;49184;55.596;37.770;2022-10-16T12:37:37;100934.59;;;12.86;42.87
63096;BME280;49184;55.596;37.770;2022-10-16T12:40:22;100935.63;;;12.96;43.58
63096;BME280;49184;55.596;37.770;2022-10-16T12:42:49;100942.94;;;13.05;43.52
63096;BME280;49184;55.596;37.770;2022-10-16T12:45:41;100945.38;;;13.07;43.25
63096;BME280;49184;55.596;37.770;2022-10-16T12:48:21;100926.03;;;12.93;43.26
63096;BME280;49184;55.596;37.770;2022-10-16T12:50:48;100945.13;;;13.03;43.89
63096;BME280;49184;55.596;37.770;2022-10-16T12:53:25;100943.78;;;13.01;43.98
63096;BME280;49184;55.596;37.770;2022-10-16T12:55:56;100954.84;;;12.96;42.92
63096;BME280;49184;55.596;37.770;2022-10-16T13:01:21;100956.47;;;12.97;43.66
63096;BME280;49184;55.596;37.770;2022-10-16T13:10:02;100952.53;;;12.74;43.94
63096;BME280;49184;55.596;37.770;2022-10-16T13:12:51;100952.34;;;12.65;43.52
63096;BME280;49184;55.596;37.770;2022-10-16T13:18:19;100914.13;;;12.39;44.04
63096;BME280;49184;55.596;37.770;2022-10-16T13:21:14;100934.41;;;12.43;44.04
63096;BME280;49184;55.596;37.770;2022-10-16T13:26:42;100916.25;;;12.13;44.51
63096;BME280;49184;55.596;37.770;2022-10-16T13:29:10;100902.34;;;11.99;44.60
63096;BME280;49184;55.596;37.770;2022-10-16T13:31:38;100919.00;;;12.08;44.87
63096;BME280;49184;55.596;37.770;2022-10-16T13:34:05;100950.44;;;12.21;44.90
63096;BME280;49184;55.596;37.770;2022-10-16T13:36:52;100938.19;;;12.08;44.78
63096;BME280;49184;55.596;37.770;2022-10-16T13:39:26;100943.41;;;12.05;45.12
63096;BME280;49184;55.596;37.770;2022-10-16T13:42:11;100954.94;;;12.07;45.86
63096;BME280;49184;55.596;37.770;2022-10-16T13:44:48;100918.59;;;11.81;45.73
63096;BME280;49184;55.596;37.770;2022-10-16T13:49:46;100921.06;;;11.82;46.58
63096;BME280;49184;55.596;37.770;2022-10-16T13:52:20;100955.00;;;11.91;46.43
63096;BME280;49184;55.596;37.770;2022-10-16T13:54:47;100891.59;;;11.48;46.72
63096;BME280;49184;55.596;37.770;2022-10-16T13:57:15;100946.03;;;11.70;47.17
63096;BME280;49184;55.596;37.770;2022-10-16T13:59:43;100940.34;;;11.57;46.99
63096;BME280;49184;55.596;37.770;2022-10-16T14:02:26;100946.63;;;11.62;47.38
63096;BME280;49184;55.596;37.770;2022-10-16T14:04:54;100951.28;;;11.57;47.83
63096;BME280;49184;55.596;37.770;2022-10-16T14:07:29;100937.13;;;11.34;47.34
63096;BME280;49184;55.596;37.770;2022-10-16T14:10:46;100940.41;;;11.36;47.45
63096;BME280;49184;55.596;37.770;2022-10-16T14:12:55;100944.78;;;11.42;48.42
63096;BME280;49184;55.596;37.770;2022-10-16T14:15:22;100886.00;;;10.99;48.47
63096;BME280;49184;55.596;37.770;2022-10-16T14:17:51;100898.59;;;11.05;48.87
63096;BME280;49184;55.596;37.770;2022-10-16T14:20:20;100868.00;;;10.77;49.24
63096;BME280;49184;55.596;37.770;2022-10-16T14:22:59;100883.88;;;10.75;49.39
63096;BME280;49184;55.596;37.770;2022-10-16T14:25:29;100947.03;;;11.04;49.72
63096;BME280;49184;55.596;37.770;2022-10-16T14:28:16;100947.59;;;10.91;50.12
63096;BME280;49184;55.596;37.770;2022-10-16T14:30:54;100950.06;;;10.88;50.41
63096;BME280;49184;55.596;37.770;2022-10-16T14:36:16;100941.06;;;10.67;51.02
63096;BME280;49184;55.596;37.770;2022-10-16T14:39:05;100955.00;;;10.70;51.26
63096;BME280;49184;55.596;37.770;2022-10-16T14:41:40;100956.34;;;10.63;51.49
63096;BME280;49184;55.596;37.770;2022-10-16T14:44:10;100920.78;;;10.32;51.51
63096;BME280;49184;55.596;37.770;2022-10-16T14:46:39;100945.41;;;10.27;51.70
63096;BME280;49184;55.596;37.770;2022-10-16T14:49:19;100959.06;;;10.42;51.81
63096;BME280;49184;55.596;37.770;2022-10-16T14:51:46;100931.13;;;10.20;52.03
63096;BME280;49184;55.596;37.770;2022-10-16T14:54:17;100934.97;;;10.19;52.22
63096;BME280;49184;55.596;37.770;2022-10-16T14:59:36;100927.81;;;10.02;52.55
63096;BME280;49184;55.596;37.770;2022-10-16T15:02:28;100962.28;;;10.14;52.70
63096;BME280;49184;55.596;37.770;2022-10-16T15:04:57;100948.28;;;10.00;52.93
63096;BME280;49184;55.596;37.770;2022-10-16T15:07:25;100952.16;;;10.09;59.10
63096;BME280;49184;55.596;37.770;2022-10-16T15:09:52;100917.41;;;9.84;53.19
63096;BME280;49184;55.596;37.770;2022-10-16T15:12:19;100939.28;;;9.94;53.81
63096;BME280;49184;55.596;37.770;2022-10-16T15:14:45;100943.09;;;9.88;53.14
63096;BME280;49184;55.596;37.770;2022-10-16T15:17:11;100952.66;;;9.96;53.46
63096;BME280;49184;55.596;37.770;2022-10-16T15:19:38;100968.81;;;9.97;53.35
63096;BME280;49184;55.596;37.770;2022-10-16T15:22:04;100928.53;;;9.72;53.47
63096;BME280;49184;55.596;37.770;2022-10-16T15:24:31;100960.81;;;9.85;53.67
63096;BME280;49184;55.596;37.770;2022-10-16T15:26:57;100932.31;;;9.56;54.22
63096;BME280;49184;55.596;37.770;2022-10-16T15:29:23;100917.25;;;9.48;54.04
63096;BME280;49184;55.596;37.770;2022-10-16T15:31:49;100888.16;;;9.16;54.43
63096;BME280;49184;55.596;37.770;2022-10-16T15:34:17;100930.63;;;9.50;54.60
63096;BME280;49184;55.596;37.770;2022-10-16T15:36:45;100909.56;;;9.35;54.33
63096;BME280;49184;55.596;37.770;2022-10-16T15:39:16;100893.09;;;9.20;54.50
63096;BME280;49184;55.596;37.770;2022-10-16T15:41:44;100877.72;;;9.03;54.40
63096;BME280;49184;55.596;37.770;2022-10-16T15:44:10;100934.91;;;9.30;54.79
63096;BME280;49184;55.596;37.770;2022-10-16T15:46:36;100896.53;;;9.00;54.77
63096;BME280;49184;55.596;37.770;2022-10-16T15:49:03;100907.50;;;9.05;55.21
63096;BME280;49184;55.596;37.770;2022-10-16T15:51:30;100950.16;;;9.26;55.12
63096;BME280;49184;55.596;37.770;2022-10-16T15:53:59;100968.22;;;9.32;55.41
63096;BME280;49184;55.596;37.770;2022-10-16T15:56:27;100890.72;;;8.81;55.34
63096;BME280;49184;55.596;37.770;2022-10-16T15:58:54;100902.50;;;8.91;55.39
63096;BME280;49184;55.596;37.770;2022-10-16T16:01:21;100916.72;;;8.99;55.32
63096;BME280;49184;55.596;37.770;2022-10-16T16:03:47;100877.19;;;8.64;55.78
63096;BME280;49184;55.596;37.770;2022-10-16T16:06:13;100911.44;;;8.82;55.25
63096;BME280;49184;55.596;37.770;2022-10-16T16:08:40;100928.16;;;8.96;55.94
63096;BME280;49184;55.596;37.770;2022-10-16T16:11:12;100920.78;;;8.96;55.60
63096;BME280;49184;55.596;37.770;2022-10-16T16:13:39;100927.28;;;8.90;55.56
63096;BME280;49184;55.596;37.770;2022-10-16T16:16:13;100880.94;;;8.53;55.90
63096;BME280;49184;55.596;37.770;2022-10-16T16:18:40;100903.41;;;8.70;55.59
63096;BME280;49184;55.596;37.770;2022-10-16T16:21:06;100880.38;;;8.51;55.78
63096;BME280;49184;55.596;37.770;2022-10-16T16:23:33;100903.34;;;8.60;55.85
63096;BME280;49184;55.596;37.770;2022-10-16T16:26:07;100955.59;;;8.84;55.84
63096;BME280;49184;55.596;37.770;2022-10-16T16:28:35;100956.69;;;8.83;55.92
63096;BME280;49184;55.596;37.770;2022-10-16T16:31:02;100950.13;;;8.79;56.03
63096;BME280;49184;55.596;37.770;2022-10-16T16:33:29;100886.75;;;8.34;55.91
63096;BME280;49184;55.596;37.770;2022-10-16T16:36:02;100921.63;;;8.59;56.44
63096;BME280;49184;55.596;37.770;2022-10-16T16:38:29;100916.69;;;8.56;56.50
63096;BME280;49184;55.596;37.770;2022-10-16T16:40:55;100867.81;;;8.17;56.88
63096;BME280;49184;55.596;37.770;2022-10-16T16:43:25;100943.47;;;8.64;56.71
63096;BME280;49184;55.596;37.770;2022-10-16T16:45:54;100905.63;;;8.41;56.90
63096;BME280;49184;55.596;37.770;2022-10-16T16:48:21;100873.75;;;8.14;56.82
63096;BME280;49184;55.596;37.770;2022-10-16T16:50:48;100875.72;;;8.19;57.12
63096;BME280;49184;55.596;37.770;2022-10-16T16:53:15;100906.88;;;8.28;57.07
63096;BME280;49184;55.596;37.770;2022-10-16T16:55:43;100901.13;;;8.24;56.89
63096;BME280;49184;55.596;37.770;2022-10-16T16:58:10;100901.56;;;8.11;57.11
63096;BME280;49184;55.596;37.770;2022-10-16T17:00:36;100973.88;;;8.51;56.90
63096;BME280;49184;55.596;37.770;2022-10-16T17:03:02;100922.97;;;8.30;56.85
63096;BME280;49184;55.596;37.770;2022-10-16T17:05:29;100962.44;;;8.54;56.42
63096;BME280;49184;55.596;37.770;2022-10-16T17:07:55;100954.19;;;8.44;56.08
63096;BME280;49184;55.596;37.770;2022-10-16T17:10:22;100915.56;;;8.25;56.43
63096;BME280;49184;55.596;37.770;2022-10-16T17:12:48;100896.03;;;8.06;56.33
63096;BME280;49184;55.596;37.770;2022-10-16T17:15:15;100937.19;;;8.37;56.57
63096;BME280;49184;55.596;37.770;2022-10-16T17:17:41;100949.88;;;8.48;56.63
63096;BME280;49184;55.596;37.770;2022-10-16T17:20:09;100909.25;;;8.19;56.77
63096;BME280;49184;55.596;37.770;2022-10-16T17:22:36;100874.16;;;7.96;57.06
63096;BME280;49184;55.596;37.770;2022-10-16T17:25:04;100898.25;;;8.09;57.28
63096;BME280;49184;55.596;37.770;2022-10-16T17:27:33;100879.00;;;7.89;57.71
63096;BME280;49184;55.596;37.770;2022-10-16T17:30:03;100907.44;;;8.03;57.85
63096;BME280;49184;55.596;37.770;2022-10-16T17:32:29;100936.13;;;8.11;57.96
63096;BME280;49184;55.596;37.770;2022-10-16T17:34:55;100921.34;;;8.02;57.94
63096;BME280;49184;55.596;37.770;2022-10-16T17:37:22;100905.09;;;7.85;57.94
63096;BME280;49184;55.596;37.770;2022-10-16T17:39:52;100953.84;;;8.13;58.28
63096;BME280;49184;55.596;37.770;2022-10-16T17:42:18;100900.91;;;7.77;58.28
63096;BME280;49184;55.596;37.770;2022-10-16T17:44:45;100900.88;;;7.72;58.56
63096;BME280;49184;55.596;37.770;2022-10-16T17:47:11;100898.56;;;7.64;58.76
63096;BME280;49184;55.596;37.770;2022-10-16T17:49:37;100911.06;;;7.60;58.85
63096;BME280;49184;55.596;37.770;2022-10-16T17:52:04;100941.50;;;7.79;58.64
63096;BME280;49184;55.596;37.770;2022-10-16T17:54:30;100941.81;;;7.82;59.02
63096;BME280;49184;55.596;37.770;2022-10-16T17:56:57;100934.06;;;7.74;58.99
63096;BME280;49184;55.596;37.770;2022-10-16T17:59:23;100942.00;;;7.75;59.18
63096;BME280;49184;55.596;37.770;2022-10-16T18:01:49;100948.59;;;7.80;58.88
63096;BME280;49184;55.596;37.770;2022-10-16T18:04:16;100932.31;;;7.63;59.33
63096;BME280;49184;55.596;37.770;2022-10-16T18:06:43;100969.09;;;7.87;59.12
63096;BME280;49184;55.596;37.770;2022-10-16T18:09:15;100969.34;;;7.86;59.21
63096;BME280;49184;55.596;37.770;2022-10-16T18:11:43;100916.91;;;7.51;59.22
63096;BME280;49184;55.596;37.770;2022-10-16T18:14:12;100936.16;;;7.67;59.34
63096;BME280;49184;55.596;37.770;2022-10-16T18:16:39;100908.94;;;7.45;59.04
63096;BME280;49184;55.596;37.770;2022-10-16T18:19:05;100912.00;;;7.48;59.15
63096;BME280;49184;55.596;37.770;2022-10-16T18:21:32;100911.16;;;7.48;59.29
63096;BME280;49184;55.596;37.770;2022-10-16T18:23:59;100942.38;;;7.62;59.47
63096;BME280;49184;55.596;37.770;2022-10-16T18:26:26;100959.41;;;7.74;59.49
63096;BME280;49184;55.596;37.770;2022-10-16T18:28:54;100928.19;;;7.60;59.53
63096;BME280;49184;55.596;37.770;2022-10-16T18:31:22;100885.94;;;7.30;59.41
63096;BME280;49184;55.596;37.770;2022-10-16T18:33:51;100903.97;;;7.37;58.78
63096;BME280;49184;55.596;37.770;2022-10-16T18:36:20;100960.56;;;7.79;58.76
63096;BME280;49184;55.596;37.770;2022-10-16T18:38:46;100910.31;;;7.42;59.00
63096;BME280;49184;55.596;37.770;2022-10-16T18:41:13;100876.81;;;7.20;58.54
63096;BME280;49184;55.596;37.770;2022-10-16T18:43:40;100928.16;;;7.55;58.94
63096;BME280;49184;55.596;37.770;2022-10-16T18:46:12;100874.88;;;7.15;58.41
63096;BME280;49184;55.596;37.770;2022-10-16T18:48:39;100893.00;;;7.32;58.59
63096;BME280;49184;55.596;37.770;2022-10-16T18:53:41;100895.66;;;7.26;59.47
63096;BME280;49184;55.596;37.770;2022-10-16T18:56:08;100861.09;;;7.05;59.27
63096;BME280;49184;55.596;37.770;2022-10-16T18:58:37;100920.28;;;7.37;59.48
63096;BME280;49184;55.596;37.770;2022-10-16T19:01:08;100892.88;;;7.21;59.79
63096;BME280;49184;55.596;37.770;2022-10-16T19:03:37;100917.47;;;7.32;59.87
63096;BME280;49184;55.596;37.770;2022-10-16T19:06:08;100918.53;;;7.25;59.61
63096;BME280;49184;55.596;37.770;2022-10-16T19:08:36;100875.97;;;6.97;59.87
63096;BME280;49184;55.596;37.770;2022-10-16T19:11:09;100882.03;;;7.04;59.75
63096;BME280;49184;55.596;37.770;2022-10-16T19:13:35;100912.03;;;7.32;59.42
63096;BME280;49184;55.596;37.770;2022-10-16T19:16:02;100895.03;;;7.19;59.72
63096;BME280;49184;55.596;37.770;2022-10-16T19:18:30;100894.78;;;7.21;59.01
63096;BME280;49184;55.596;37.770;2022-10-16T19:21:03;100955.28;;;7.50;59.12
63096;BME280;49184;55.596;37.770;2022-10-16T19:23:30;100919.97;;;7.33;58.90
63096;BME280;49184;55.596;37.770;2022-10-16T19:26:04;100892.13;;;7.26;58.78
63096;BME280;49184;55.596;37.770;2022-10-16T19:28:30;100912.44;;;7.40;58.54
63096;BME280;49184;55.596;37.770;2022-10-16T19:31:00;100928.34;;;7.48;58.66
63096;BME280;49184;55.596;37.770;2022-10-16T19:33:28;100909.47;;;7.42;58.38
63096;BME280;49184;55.596;37.770;2022-10-16T19:36:06;100862.81;;;7.11;57.84
63096;BME280;49184;55.596;37.770;2022-10-16T19:38:32;100890.03;;;7.33;57.89
63096;BME280;49184;55.596;37.770;2022-10-16T19:41:08;100891.44;;;7.36;58.08
63096;BME280;49184;55.596;37.770;2022-10-16T19:43:36;100880.44;;;7.25;57.86